sensor_id;sensor_type;location;lat;lon;timestamp;temperature;humidity
75824;DHT22;64457;51.976;9.834;2023-04-01T00:01:05;14.70;96.20
75824;DHT22;64457;51.976;9.834;2023-04-01T00:03:34;14.60;96.30
75824;DHT22;64457;51.976;9.834;2023-04-01T00:06:03;14.60;96.10
75824;DHT22;64457;51.976;9.834;2023-04-01T00:08:31;14.50;96.00
75824;DHT22;64457;51.976;9.834;2023-04-01T00:10:59;14.50;95.80
75824;DHT22;64457;51.976;9.834;2023-04-01T00:13:27;14.30;96.10
75824;DHT22;64457;51.976;9.834;2023-04-01T00:15:55;14.40;96.40
75824;DHT22;64457;51.976;9.834;2023-04-01T00:18:26;14.30;96.40
75824;DHT22;64457;51.976;9.834;2023-04-01T00:20:55;14.40;96.40
75824;DHT22;64457;51.976;9.834;2023-04-01T00:23:23;14.20;96.20
75824;DHT22;64457;51.976;9.834;2023-04-01T00:25:51;14.30;96.30
75824;DHT22;64457;51.976;9.834;2023-04-01T00:28:19;14.20;96.30
75824;DHT22;64457;51.976;9.834;2023-04-01T00:30:47;14.30;96.20
75824;DHT22;64457;51.976;9.834;2023-04-01T00:33:15;14.10;96.00
75824;DHT22;64457;51.976;9.834;2023-04-01T00:35:43;14.20;96.50
75824;DHT22;64457;51.976;9.834;2023-04-01T00:38:13;14.20;96.50
75824;DHT22;64457;51.976;9.834;2023-04-01T00:40:45;14.20;96.60
75824;DHT22;64457;51.976;9.834;2023-04-01T00:43:15;14.40;96.30
75824;DHT22;64457;51.976;9.834;2023-04-01T00:45:46;14.20;96.50
75824;DHT22;64457;51.976;9.834;2023-04-01T00:48:17;14.40;96.40
75824;DHT22;64457;51.976;9.834;2023-04-01T00:50:48;14.40;96.30
75824;DHT22;64457;51.976;9.834;2023-04-01T00:53:20;14.30;96.30
75824;DHT22;64457;51.976;9.834;2023-04-01T00:55:51;14.20;96.70
75824;DHT22;64457;51.976;9.834;2023-04-01T00:58:23;13.90;97.10
75824;DHT22;64457;51.976;9.834;2023-04-01T01:00:52;13.90;97.40
75824;DHT22;64457;51.976;9.834;2023-04-01T01:03:21;13.90;97.40
75824;DHT22;64457;51.976;9.834;2023-04-01T01:06:10;13.90;96.90
75824;DHT22;64457;51.976;9.834;2023-04-01T01:09:06;14.00;97.30
75824;DHT22;64457;51.976;9.834;2023-04-01T01:11:46;14.20;97.10
75824;DHT22;64457;51.976;9.834;2023-04-01T01:14:28;14.20;97.00
75824;DHT22;64457;51.976;9.834;2023-04-01T01:17:07;14.10;97.10
75824;DHT22;64457;51.976;9.834;2023-04-01T01:20:04;14.30;97.00
75824;DHT22;64457;51.976;9.834;2023-04-01T01:23:19;14.40;96.80
75824;DHT22;64457;51.976;9.834;2023-04-01T01:26:14;14.30;96.70
75824;DHT22;64457;51.976;9.834;2023-04-01T01:29:11;14.30;96.80
75824;DHT22;64457;51.976;9.834;2023-04-01T01:31:58;14.20;97.00
75824;DHT22;64457;51.976;9.834;2023-04-01T01:34:36;14.20;97.00
75824;DHT22;64457;51.976;9.834;2023-04-01T01:37:15;13.90;97.20
75824;DHT22;64457;51.976;9.834;2023-04-01T01:39:51;13.60;97.70
75824;DHT22;64457;51.976;9.834;2023-04-01T01:42:25;13.70;97.80
75824;DHT22;64457;51.976;9.834;2023-04-01T01:44:57;13.80;97.50
75824;DHT22;64457;51.976;9.834;2023-04-01T01:47:30;13.60;97.60
75824;DHT22;64457;51.976;9.834;2023-04-01T01:49:59;13.60;98.20
75824;DHT22;64457;51.976;9.834;2023-04-01T01:52:32;13.60;97.80
75824;DHT22;64457;51.976;9.834;2023-04-01T01:55:01;13.80;97.80
75824;DHT22;64457;51.976;9.834;2023-04-01T01:57:33;13.90;97.70
75824;DHT22;64457;51.976;9.834;2023-04-01T02:00:06;14.10;97.30
75824;DHT22;64457;51.976;9.834;2023-04-01T02:02:39;14.10;97.30
75824;DHT22;64457;51.976;9.834;2023-04-01T02:05:09;14.00;97.30
75824;DHT22;64457;51.976;9.834;2023-04-01T02:07:42;14.00;97.60
75824;DHT22;64457;51.976;9.834;2023-04-01T02:10:13;14.10;97.60
75824;DHT22;64457;51.976;9.834;2023-04-01T02:12:42;14.20;97.30
75824;DHT22;64457;51.976;9.834;2023-04-01T02:15:14;14.00;97.30
75824;DHT22;64457;51.976;9.834;2023-04-01T02:17:44;14.20;97.30
75824;DHT22;64457;51.976;9.834;2023-04-01T02:20:17;14.10;97.30
75824;DHT22;64457;51.976;9.834;2023-04-01T02:22:52;14.20;97.30
75824;DHT22;64457;51.976;9.834;2023-04-01T02:25:26;14.10;97.70
75824;DHT22;64457;51.976;9.834;2023-04-01T02:28:00;14.10;97.60
75824;DHT22;64457;51.976;9.834;2023-04-01T02:30:29;14.20;97.30
75824;DHT22;64457;51.976;9.834;2023-04-01T02:33:02;14.10;97.30
75824;DHT22;64457;51.976;9.834;2023-04-01T02:35:32;14.20;97.00
75824;DHT22;64457;51.976;9.834;2023-04-01T02:38:03;14.20;97.10
75824;DHT22;64457;51.976;9.834;2023-04-01T02:40:50;14.20;97.10
75824;DHT22;64457;51.976;9.834;2023-04-01T02:43:19;14.30;96.70
75824;DHT22;64457;51.976;9.834;2023-04-01T02:45:48;14.20;96.90
75824;DHT22;64457;51.976;9.834;2023-04-01T02:48:16;14.10;96.90
75824;DHT22;64457;51.976;9.834;2023-04-01T02:50:44;14.10;97.00
75824;DHT22;64457;51.976;9.834;2023-04-01T02:53:14;14.10;96.90
75824;DHT22;64457;51.976;9.834;2023-04-01T02:55:45;14.10;97.10
75824;DHT22;64457;51.976;9.834;2023-04-01T02:58:16;14.20;96.80
75824;DHT22;64457;51.976;9.834;2023-04-01T03:00:44;14.20;96.60
75824;DHT22;64457;51.976;9.834;2023-04-01T03:03:11;14.30;96.70
75824;DHT22;64457;51.976;9.834;2023-04-01T03:05:43;14.20;96.70
75824;DHT22;64457;51.976;9.834;2023-04-01T03:08:11;14.20;97.00
75824;DHT22;64457;51.976;9.834;2023-04-01T03:10:41;14.30;96.60
75824;DHT22;64457;51.976;9.834;2023-04-01T03:13:09;14.20;96.70
75824;DHT22;64457;51.976;9.834;2023-04-01T03:15:37;14.00;96.70
75824;DHT22;64457;51.976;9.834;2023-04-01T03:18:06;13.80;97.20
75824;DHT22;64457;51.976;9.834;2023-04-01T03:20:35;13.80;97.50
75824;DHT22;64457;51.976;9.834;2023-04-01T03:23:03;13.70;97.50
75824;DHT22;64457;51.976;9.834;2023-04-01T03:25:31;13.80;97.40
75824;DHT22;64457;51.976;9.834;2023-04-01T03:28:05;13.80;97.30
75824;DHT22;64457;51.976;9.834;2023-04-01T03:30:32;13.80;97.30
75824;DHT22;64457;51.976;9.834;2023-04-01T03:33:00;14.00;97.10
75824;DHT22;64457;51.976;9.834;2023-04-01T03:35:29;14.20;97.10
75824;DHT22;64457;51.976;9.834;2023-04-01T03:37:57;14.10;96.90
75824;DHT22;64457;51.976;9.834;2023-04-01T03:40:25;14.10;96.70
75824;DHT22;64457;51.976;9.834;2023-04-01T03:42:53;13.90;97.00
75824;DHT22;64457;51.976;9.834;2023-04-01T03:45:26;13.90;97.20
75824;DHT22;64457;51.976;9.834;2023-04-01T03:47:54;14.10;97.10
75824;DHT22;64457;51.976;9.834;2023-04-01T03:50:22;13.80;97.00
75824;DHT22;64457;51.976;9.834;2023-04-01T03:52:50;13.70;97.50
75824;DHT22;64457;51.976;9.834;2023-04-01T03:55:18;13.90;97.30
75824;DHT22;64457;51.976;9.834;2023-04-01T03:57:47;13.90;97.10
75824;DHT22;64457;51.976;9.834;2023-04-01T04:00:16;13.70;97.20
75824;DHT22;64457;51.976;9.834;2023-04-01T04:02:45;13.40;97.70
75824;DHT22;64457;51.976;9.834;2023-04-01T04:05:13;13.30;98.20
75824;DHT22;64457;51.976;9.834;2023-04-01T04:07:41;13.40;98.10
75824;DHT22;64457;51.976;9.834;2023-04-01T04:10:09;13.30;97.90
75824;DHT22;64457;51.976;9.834;2023-04-01T04:12:38;13.30;97.90
75824;DHT22;64457;51.976;9.834;2023-04-01T04:15:06;13.40;98.00
75824;DHT22;64457;51.976;9.834;2023-04-01T04:17:34;13.70;97.60
75824;DHT22;64457;51.976;9.834;2023-04-01T04:20:06;13.60;97.60
75824;DHT22;64457;51.976;9.834;2023-04-01T04:22:34;13.40;97.50
75824;DHT22;64457;51.976;9.834;2023-04-01T04:25:03;13.30;98.20
75824;DHT22;64457;51.976;9.834;2023-04-01T04:27:32;13.30;98.30
75824;DHT22;64457;51.976;9.834;2023-04-01T04:30:02;13.30;98.30
75824;DHT22;64457;51.976;9.834;2023-04-01T04:32:31;13.30;98.50
75824;DHT22;64457;51.976;9.834;2023-04-01T04:34:58;13.30;98.30
75824;DHT22;64457;51.976;9.834;2023-04-01T04:37:28;13.20;98.50
75824;DHT22;64457;51.976;9.834;2023-04-01T04:39:56;13.30;98.40
75824;DHT22;64457;51.976;9.834;2023-04-01T04:42:23;13.50;98.20
75824;DHT22;64457;51.976;9.834;2023-04-01T04:44:51;13.70;97.80
75824;DHT22;64457;51.976;9.834;2023-04-01T04:47:18;13.90;97.50
75824;DHT22;64457;51.976;9.834;2023-04-01T04:49:46;13.80;97.50
75824;DHT22;64457;51.976;9.834;2023-04-01T04:52:13;13.70;97.80
75824;DHT22;64457;51.976;9.834;2023-04-01T04:54:44;13.60;97.90
75824;DHT22;64457;51.976;9.834;2023-04-01T04:57:12;13.50;98.10
75824;DHT22;64457;51.976;9.834;2023-04-01T04:59:40;13.40;97.90
75824;DHT22;64457;51.976;9.834;2023-04-01T05:02:08;13.20;98.00
75824;DHT22;64457;51.976;9.834;2023-04-01T05:04:36;13.00;98.80
75824;DHT22;64457;51.976;9.834;2023-04-01T05:07:04;13.20;98.70
75824;DHT22;64457;51.976;9.834;2023-04-01T05:09:31;13.30;98.60
75824;DHT22;64457;51.976;9.834;2023-04-01T05:12:01;13.40;98.30
75824;DHT22;64457;51.976;9.834;2023-04-01T05:14:29;13.40;98.20
75824;DHT22;64457;51.976;9.834;2023-04-01T05:16:57;13.40;97.90
75824;DHT22;64457;51.976;9.834;2023-04-01T05:19:24;13.40;98.10
75824;DHT22;64457;51.976;9.834;2023-04-01T05:21:52;13.40;98.10
75824;DHT22;64457;51.976;9.834;2023-04-01T05:24:23;13.30;98.40
75824;DHT22;64457;51.976;9.834;2023-04-01T05:26:51;13.50;98.10
75824;DHT22;64457;51.976;9.834;2023-04-01T05:29:21;13.40;98.10
75824;DHT22;64457;51.976;9.834;2023-04-01T05:31:49;13.40;98.40
75824;DHT22;64457;51.976;9.834;2023-04-01T05:34:17;13.60;98.10
75824;DHT22;64457;51.976;9.834;2023-04-01T05:36:44;13.70;97.90
75824;DHT22;64457;51.976;9.834;2023-04-01T05:39:12;13.60;97.80
75824;DHT22;64457;51.976;9.834;2023-04-01T05:41:42;13.40;98.10
75824;DHT22;64457;51.976;9.834;2023-04-01T05:44:12;13.50;98.30
75824;DHT22;64457;51.976;9.834;2023-04-01T05:46:42;13.60;98.20
75824;DHT22;64457;51.976;9.834;2023-04-01T05:49:10;13.80;98.10
75824;DHT22;64457;51.976;9.834;2023-04-01T05:51:38;13.80;98.10
75824;DHT22;64457;51.976;9.834;2023-04-01T05:54:06;13.60;97.90
75824;DHT22;64457;51.976;9.834;2023-04-01T05:56:36;13.50;98.30
75824;DHT22;64457;51.976;9.834;2023-04-01T05:59:04;13.40;98.40
75824;DHT22;64457;51.976;9.834;2023-04-01T06:01:31;13.40;98.10
75824;DHT22;64457;51.976;9.834;2023-04-01T06:04:00;13.30;98.40
75824;DHT22;64457;51.976;9.834;2023-04-01T06:06:29;13.30;98.30
75824;DHT22;64457;51.976;9.834;2023-04-01T06:09:01;13.20;98.50
75824;DHT22;64457;51.976;9.834;2023-04-01T06:11:39;13.10;98.80
75824;DHT22;64457;51.976;9.834;2023-04-01T06:14:22;13.30;98.80
75824;DHT22;64457;51.976;9.834;2023-04-01T06:17:04;13.40;98.40
75824;DHT22;64457;51.976;9.834;2023-04-01T06:19:48;13.60;98.10
75824;DHT22;64457;51.976;9.834;2023-04-01T06:22:30;13.90;97.90
75824;DHT22;64457;51.976;9.834;2023-04-01T06:25:22;13.90;97.70
75824;DHT22;64457;51.976;9.834;2023-04-01T06:28:14;13.90;97.50
75824;DHT22;64457;51.976;9.834;2023-04-01T06:31:05;14.00;97.40
75824;DHT22;64457;51.976;9.834;2023-04-01T06:33:50;13.90;97.20
75824;DHT22;64457;51.976;9.834;2023-04-01T06:36:50;13.90;97.50
75824;DHT22;64457;51.976;9.834;2023-04-01T06:39:45;13.80;97.90
75824;DHT22;64457;51.976;9.834;2023-04-01T06:42:31;13.70;98.10
75824;DHT22;64457;51.976;9.834;2023-04-01T06:45:30;13.60;98.50
75824;DHT22;64457;51.976;9.834;2023-04-01T06:51:19;13.70;98.80
75824;DHT22;64457;51.976;9.834;2023-04-01T06:53:56;13.90;98.40
75824;DHT22;64457;51.976;9.834;2023-04-01T06:56:29;13.90;98.00
75824;DHT22;64457;51.976;9.834;2023-04-01T06:58:58;14.10;98.10
75824;DHT22;64457;51.976;9.834;2023-04-01T07:01:33;13.80;98.10
75824;DHT22;64457;51.976;9.834;2023-04-01T07:04:09;13.80;98.40
75824;DHT22;64457;51.976;9.834;2023-04-01T07:06:42;14.00;98.50
75824;DHT22;64457;51.976;9.834;2023-04-01T07:09:19;14.00;98.30
75824;DHT22;64457;51.976;9.834;2023-04-01T07:11:48;14.20;98.10
75824;DHT22;64457;51.976;9.834;2023-04-01T07:14:20;14.50;97.80
75824;DHT22;64457;51.976;9.834;2023-04-01T07:16:54;14.70;97.60
75824;DHT22;64457;51.976;9.834;2023-04-01T07:19:30;14.60;97.20
75824;DHT22;64457;51.976;9.834;2023-04-01T07:22:05;14.40;97.50
75824;DHT22;64457;51.976;9.834;2023-04-01T07:24:44;14.60;98.10
75824;DHT22;64457;51.976;9.834;2023-04-01T07:27:13;14.90;97.30
75824;DHT22;64457;51.976;9.834;2023-04-01T07:29:41;15.10;96.60
75824;DHT22;64457;51.976;9.834;2023-04-01T07:32:26;15.00;96.80
75824;DHT22;64457;51.976;9.834;2023-04-01T07:35:12;14.90;96.60
75824;DHT22;64457;51.976;9.834;2023-04-01T07:37:53;14.60;97.00
75824;DHT22;64457;51.976;9.834;2023-04-01T07:40:39;14.60;97.40
75824;DHT22;64457;51.976;9.834;2023-04-01T07:43:33;14.90;96.60
75824;DHT22;64457;51.976;9.834;2023-04-01T07:46:25;14.90;96.70
75824;DHT22;64457;51.976;9.834;2023-04-01T07:49:04;14.30;97.10
75824;DHT22;64457;51.976;9.834;2023-04-01T07:51:40;14.40;97.20
75824;DHT22;64457;51.976;9.834;2023-04-01T07:54:25;14.70;96.80
75824;DHT22;64457;51.976;9.834;2023-04-01T07:57:01;14.60;96.70
75824;DHT22;64457;51.976;9.834;2023-04-01T07:59:38;15.00;96.90
75824;DHT22;64457;51.976;9.834;2023-04-01T08:02:23;15.50;96.50
75824;DHT22;64457;51.976;9.834;2023-04-01T08:05:04;15.90;95.80
75824;DHT22;64457;51.976;9.834;2023-04-01T08:07:45;15.80;94.50
75824;DHT22;64457;51.976;9.834;2023-04-01T08:10:22;15.40;95.90
75824;DHT22;64457;51.976;9.834;2023-04-01T08:13:00;15.40;96.10
75824;DHT22;64457;51.976;9.834;2023-04-01T08:15:35;15.80;95.80
75824;DHT22;64457;51.976;9.834;2023-04-01T08:18:13;15.90;95.10
75824;DHT22;64457;51.976;9.834;2023-04-01T08:20:48;15.50;94.20
75824;DHT22;64457;51.976;9.834;2023-04-01T08:23:22;15.50;95.60
75824;DHT22;64457;51.976;9.834;2023-04-01T08:25:56;15.80;95.30
75824;DHT22;64457;51.976;9.834;2023-04-01T08:28:30;16.10;95.10
75824;DHT22;64457;51.976;9.834;2023-04-01T08:31:04;16.40;94.70
75824;DHT22;64457;51.976;9.834;2023-04-01T08:33:33;16.20;94.30
75824;DHT22;64457;51.976;9.834;2023-04-01T08:36:04;16.20;94.70
75824;DHT22;64457;51.976;9.834;2023-04-01T08:38:39;16.30;94.70
75824;DHT22;64457;51.976;9.834;2023-04-01T08:41:40;16.20;94.40
75824;DHT22;64457;51.976;9.834;2023-04-01T08:44:39;16.40;94.70
75824;DHT22;64457;51.976;9.834;2023-04-01T08:47:40;16.40;94.20
75824;DHT22;64457;51.976;9.834;2023-04-01T08:50:39;16.40;94.10
75824;DHT22;64457;51.976;9.834;2023-04-01T08:53:51;16.30;94.70
75824;DHT22;64457;51.976;9.834;2023-04-01T08:56:37;15.60;94.50
75824;DHT22;64457;51.976;9.834;2023-04-01T08:59:19;15.00;95.90
75824;DHT22;64457;51.976;9.834;2023-04-01T09:02:30;14.80;96.80
75824;DHT22;64457;51.976;9.834;2023-04-01T09:05:36;15.10;96.90
75824;DHT22;64457;51.976;9.834;2023-04-01T09:08:31;15.00;96.70
75824;DHT22;64457;51.976;9.834;2023-04-01T09:11:20;15.00;96.50
75824;DHT22;64457;51.976;9.834;2023-04-01T09:14:11;15.10;97.00
75824;DHT22;64457;51.976;9.834;2023-04-01T09:17:13;15.10;96.60
75824;DHT22;64457;51.976;9.834;2023-04-01T09:20:42;14.90;96.80
75824;DHT22;64457;51.976;9.834;2023-04-01T09:23:31;14.90;96.50
75824;DHT22;64457;51.976;9.834;2023-04-01T09:26:49;14.60;97.20
75824;DHT22;64457;51.976;9.834;2023-04-01T09:29:44;14.70;96.50
75824;DHT22;64457;51.976;9.834;2023-04-01T09:32:53;14.90;96.50
75824;DHT22;64457;51.976;9.834;2023-04-01T09:36:04;14.90;96.20
75824;DHT22;64457;51.976;9.834;2023-04-01T09:38:47;15.00;96.20
75824;DHT22;64457;51.976;9.834;2023-04-01T09:41:29;15.30;96.20
75824;DHT22;64457;51.976;9.834;2023-04-01T09:44:01;15.50;96.10
75824;DHT22;64457;51.976;9.834;2023-04-01T09:46:42;15.60;96.10
75824;DHT22;64457;51.976;9.834;2023-04-01T09:49:43;15.50;96.20
75824;DHT22;64457;51.976;9.834;2023-04-01T09:52:31;15.90;95.90
75824;DHT22;64457;51.976;9.834;2023-04-01T09:55:23;16.10;95.80
75824;DHT22;64457;51.976;9.834;2023-04-01T10:01:39;16.10;95.40
75824;DHT22;64457;51.976;9.834;2023-04-01T10:04:40;16.00;95.60
75824;DHT22;64457;51.976;9.834;2023-04-01T10:07:50;15.60;96.10
75824;DHT22;64457;51.976;9.834;2023-04-01T10:11:22;15.50;96.30
75824;DHT22;64457;51.976;9.834;2023-04-01T10:17:39;16.30;96.10
75824;DHT22;64457;51.976;9.834;2023-04-01T10:20:49;16.50;95.20
75824;DHT22;64457;51.976;9.834;2023-04-01T10:27:01;17.20;95.70
75824;DHT22;64457;51.976;9.834;2023-04-01T10:30:02;17.50;95.30
75824;DHT22;64457;51.976;9.834;2023-04-01T10:33:09;17.80;95.20
75824;DHT22;64457;51.976;9.834;2023-04-01T10:36:17;18.00;94.60
75824;DHT22;64457;51.976;9.834;2023-04-01T10:56:01;15.60;97.40
75824;DHT22;64457;51.976;9.834;2023-04-01T11:02:34;16.60;96.80
75824;DHT22;64457;51.976;9.834;2023-04-01T11:09:22;17.20;96.00
75824;DHT22;64457;51.976;9.834;2023-04-01T11:12:52;16.70;95.60
75824;DHT22;64457;51.976;9.834;2023-04-01T11:16:15;16.70;96.10
75824;DHT22;64457;51.976;9.834;2023-04-01T11:19:36;15.50;96.80
75824;DHT22;64457;51.976;9.834;2023-04-01T11:22:52;15.70;97.00
75824;DHT22;64457;51.976;9.834;2023-04-01T11:25:50;16.40;96.30
75824;DHT22;64457;51.976;9.834;2023-04-01T11:28:45;16.70;95.10
75824;DHT22;64457;51.976;9.834;2023-04-01T11:31:39;16.70;94.70
75824;DHT22;64457;51.976;9.834;2023-04-01T11:34:53;16.90;95.20
75824;DHT22;64457;51.976;9.834;2023-04-01T11:37:37;17.40;94.80
75824;DHT22;64457;51.976;9.834;2023-04-01T11:40:17;17.90;93.60
75824;DHT22;64457;51.976;9.834;2023-04-01T11:42:55;17.90;93.70
75824;DHT22;64457;51.976;9.834;2023-04-01T11:45:35;17.50;93.30
75824;DHT22;64457;51.976;9.834;2023-04-01T11:48:13;17.40;94.30
75824;DHT22;64457;51.976;9.834;2023-04-01T11:51:07;17.20;94.00
75824;DHT22;64457;51.976;9.834;2023-04-01T11:53:48;17.50;94.50
75824;DHT22;64457;51.976;9.834;2023-04-01T11:56:43;17.60;94.00
75824;DHT22;64457;51.976;9.834;2023-04-01T11:59:44;17.70;93.20
75824;DHT22;64457;51.976;9.834;2023-04-01T12:02:25;17.50;94.20
75824;DHT22;64457;51.976;9.834;2023-04-01T12:05:21;17.50;93.70
75824;DHT22;64457;51.976;9.834;2023-04-01T12:08:04;17.30;93.90
75824;DHT22;64457;51.976;9.834;2023-04-01T12:10:42;17.40;94.00
75824;DHT22;64457;51.976;9.834;2023-04-01T12:13:27;17.20;93.90
75824;DHT22;64457;51.976;9.834;2023-04-01T12:19:01;16.50;94.60
75824;DHT22;64457;51.976;9.834;2023-04-01T12:21:36;16.10;95.30
75824;DHT22;64457;51.976;9.834;2023-04-01T12:27:40;16.30;96.00
75824;DHT22;64457;51.976;9.834;2023-04-01T12:30:31;15.80;96.00
75824;DHT22;64457;51.976;9.834;2023-04-01T12:33:21;15.40;96.80
75824;DHT22;64457;51.976;9.834;2023-04-01T12:36:08;15.20;97.50
75824;DHT22;64457;51.976;9.834;2023-04-01T12:38:48;15.20;98.00
75824;DHT22;64457;51.976;9.834;2023-04-01T12:41:35;15.40;97.50
75824;DHT22;64457;51.976;9.834;2023-04-01T12:44:41;15.00;98.70
75824;DHT22;64457;51.976;9.834;2023-04-01T12:47:31;14.70;98.30
75824;DHT22;64457;51.976;9.834;2023-04-01T12:50:35;14.90;99.30
75824;DHT22;64457;51.976;9.834;2023-04-01T12:53:27;15.20;98.80
75824;DHT22;64457;51.976;9.834;2023-04-01T12:56:11;15.30;98.80
75824;DHT22;64457;51.976;9.834;2023-04-01T12:58:59;15.40;99.30
75824;DHT22;64457;51.976;9.834;2023-04-01T13:02:01;15.60;98.70
75824;DHT22;64457;51.976;9.834;2023-04-01T13:05:10;15.40;99.10
75824;DHT22;64457;51.976;9.834;2023-04-01T13:07:54;15.50;99.20
75824;DHT22;64457;51.976;9.834;2023-04-01T13:10:38;15.80;99.10
75824;DHT22;64457;51.976;9.834;2023-04-01T13:13:39;16.10;98.40
75824;DHT22;64457;51.976;9.834;2023-04-01T13:16:27;16.40;97.90
75824;DHT22;64457;51.976;9.834;2023-04-01T13:19:00;16.80;97.90
75824;DHT22;64457;51.976;9.834;2023-04-01T13:21:41;16.50;97.80
75824;DHT22;64457;51.976;9.834;2023-04-01T13:24:28;16.00;97.70
75824;DHT22;64457;51.976;9.834;2023-04-01T13:27:08;15.00;99.70
75824;DHT22;64457;51.976;9.834;2023-04-01T13:29:43;14.80;99.90
75824;DHT22;64457;51.976;9.834;2023-04-01T13:32:27;15.20;99.90
75824;DHT22;64457;51.976;9.834;2023-04-01T13:35:10;15.70;99.70
75824;DHT22;64457;51.976;9.834;2023-04-01T13:37:55;16.20;99.30
75824;DHT22;64457;51.976;9.834;2023-04-01T13:40:48;16.50;98.40
75824;DHT22;64457;51.976;9.834;2023-04-01T13:43:23;15.80;98.30
75824;DHT22;64457;51.976;9.834;2023-04-01T13:46:11;15.20;99.40
75824;DHT22;64457;51.976;9.834;2023-04-01T13:55:25;14.90;99.90
75824;DHT22;64457;51.976;9.834;2023-04-01T13:58:36;15.30;99.80
75824;DHT22;64457;51.976;9.834;2023-04-01T14:01:15;15.50;98.10
75824;DHT22;64457;51.976;9.834;2023-04-01T14:07:00;15.80;98.80
75824;DHT22;64457;51.976;9.834;2023-04-01T14:10:05;15.90;98.80
75824;DHT22;64457;51.976;9.834;2023-04-01T14:12:41;16.40;98.70
75824;DHT22;64457;51.976;9.834;2023-04-01T14:15:34;16.60;98.40
75824;DHT22;64457;51.976;9.834;2023-04-01T14:18:45;16.00;98.10
75824;DHT22;64457;51.976;9.834;2023-04-01T14:21:29;15.80;98.70
75824;DHT22;64457;51.976;9.834;2023-04-01T14:24:20;15.50;99.60
75824;DHT22;64457;51.976;9.834;2023-04-01T14:27:20;16.00;99.30
75824;DHT22;64457;51.976;9.834;2023-04-01T14:30:14;16.40;98.40
75824;DHT22;64457;51.976;9.834;2023-04-01T14:33:17;16.50;98.30
75824;DHT22;64457;51.976;9.834;2023-04-01T14:39:03;16.90;97.90
75824;DHT22;64457;51.976;9.834;2023-04-01T14:41:46;17.10;97.80
75824;DHT22;64457;51.976;9.834;2023-04-01T14:44:45;16.70;97.90
75824;DHT22;64457;51.976;9.834;2023-04-01T14:47:50;16.40;97.80
75824;DHT22;64457;51.976;9.834;2023-04-01T14:50:50;16.10;98.30
75824;DHT22;64457;51.976;9.834;2023-04-01T14:53:56;16.00;98.40
75824;DHT22;64457;51.976;9.834;2023-04-01T14:56:39;15.90;98.60
75824;DHT22;64457;51.976;9.834;2023-04-01T14:59:13;15.90;98.30
75824;DHT22;64457;51.976;9.834;2023-04-01T15:01:49;15.20;98.70
75824;DHT22;64457;51.976;9.834;2023-04-01T15:04:37;14.80;99.40
75824;DHT22;64457;51.976;9.834;2023-04-01T15:07:58;15.00;99.90
75824;DHT22;64457;51.976;9.834;2023-04-01T15:13:58;15.60;99.30
75824;DHT22;64457;51.976;9.834;2023-04-01T15:16:39;15.70;99.10
75824;DHT22;64457;51.976;9.834;2023-04-01T15:19:28;15.80;98.90
75824;DHT22;64457;51.976;9.834;2023-04-01T15:22:24;15.90;98.90
75824;DHT22;64457;51.976;9.834;2023-04-01T15:25:15;16.10;98.90
75824;DHT22;64457;51.976;9.834;2023-04-01T15:27:51;16.20;99.00
75824;DHT22;64457;51.976;9.834;2023-04-01T15:30:32;16.20;99.00
75824;DHT22;64457;51.976;9.834;2023-04-01T15:33:23;16.30;98.90
75824;DHT22;64457;51.976;9.834;2023-04-01T15:36:18;16.50;98.90
75824;DHT22;64457;51.976;9.834;2023-04-01T15:38:58;16.30;98.10
75824;DHT22;64457;51.976;9.834;2023-04-01T15:41:37;16.10;98.30
75824;DHT22;64457;51.976;9.834;2023-04-01T15:47:32;16.10;97.90
75824;DHT22;64457;51.976;9.834;2023-04-01T15:50:32;15.80;98.00
75824;DHT22;64457;51.976;9.834;2023-04-01T15:56:44;15.90;98.50
75824;DHT22;64457;51.976;9.834;2023-04-01T15:59:32;16.00;98.30
75824;DHT22;64457;51.976;9.834;2023-04-01T16:02:18;16.00;98.20
75824;DHT22;64457;51.976;9.834;2023-04-01T16:04:56;16.00;98.20
75824;DHT22;64457;51.976;9.834;2023-04-01T16:11:23;16.00;97.90
75824;DHT22;64457;51.976;9.834;2023-04-01T16:14:02;16.10;98.00
75824;DHT22;64457;51.976;9.834;2023-04-01T16:16:48;16.10;98.00
75824;DHT22;64457;51.976;9.834;2023-04-01T16:19:47;16.10;97.70
75824;DHT22;64457;51.976;9.834;2023-04-01T16:22:22;16.10;97.90
75824;DHT22;64457;51.976;9.834;2023-04-01T16:25:07;16.00;97.50
75824;DHT22;64457;51.976;9.834;2023-04-01T16:27:52;16.00;97.50
75824;DHT22;64457;51.976;9.834;2023-04-01T16:30:37;15.60;98.20
75824;DHT22;64457;51.976;9.834;2023-04-01T16:33:14;15.60;98.50
75824;DHT22;64457;51.976;9.834;2023-04-01T16:35:53;15.60;98.20
75824;DHT22;64457;51.976;9.834;2023-04-01T16:38:26;15.70;98.50
75824;DHT22;64457;51.976;9.834;2023-04-01T16:41:17;15.40;98.10
75824;DHT22;64457;51.976;9.834;2023-04-01T16:43:51;15.00;98.50
75824;DHT22;64457;51.976;9.834;2023-04-01T16:46:33;14.70;98.00
75824;DHT22;64457;51.976;9.834;2023-04-01T16:49:23;14.50;99.00
75824;DHT22;64457;51.976;9.834;2023-04-01T16:52:00;14.10;99.10
75824;DHT22;64457;51.976;9.834;2023-04-01T16:54:39;14.10;99.40
75824;DHT22;64457;51.976;9.834;2023-04-01T16:57:19;14.20;99.30
75824;DHT22;64457;51.976;9.834;2023-04-01T16:59:55;14.20;99.10
75824;DHT22;64457;51.976;9.834;2023-04-01T17:02:28;13.90;98.90
75824;DHT22;64457;51.976;9.834;2023-04-01T17:05:03;13.70;99.30
75824;DHT22;64457;51.976;9.834;2023-04-01T17:07:42;13.40;99.70
75824;DHT22;64457;51.976;9.834;2023-04-01T17:10:37;13.30;99.90
75824;DHT22;64457;51.976;9.834;2023-04-01T17:16:28;13.40;99.60
75824;DHT22;64457;51.976;9.834;2023-04-01T17:19:14;13.50;99.50
75824;DHT22;64457;51.976;9.834;2023-04-01T17:21:57;13.50;99.10
75824;DHT22;64457;51.976;9.834;2023-04-01T17:24:45;13.50;99.10
75824;DHT22;64457;51.976;9.834;2023-04-01T17:27:30;13.30;99.40
75824;DHT22;64457;51.976;9.834;2023-04-01T17:30:28;13.10;99.30
75824;DHT22;64457;51.976;9.834;2023-04-01T17:36:10;12.90;99.70
75824;DHT22;64457;51.976;9.834;2023-04-01T17:38:54;12.70;99.90
75824;DHT22;64457;51.976;9.834;2023-04-01T17:41:36;12.80;99.20
75824;DHT22;64457;51.976;9.834;2023-04-01T17:44:16;12.70;99.90
75824;DHT22;64457;51.976;9.834;2023-04-01T17:50:15;12.20;99.90
75824;DHT22;64457;51.976;9.834;2023-04-01T17:53:02;12.00;99.90
75824;DHT22;64457;51.976;9.834;2023-04-01T17:55:53;12.30;99.90
75824;DHT22;64457;51.976;9.834;2023-04-01T17:58:29;12.40;99.90
75824;DHT22;64457;51.976;9.834;2023-04-01T18:01:12;12.30;99.60
75824;DHT22;64457;51.976;9.834;2023-04-01T18:04:04;12.20;99.50
75824;DHT22;64457;51.976;9.834;2023-04-01T18:06:47;11.80;99.90
75824;DHT22;64457;51.976;9.834;2023-04-01T18:09:40;11.90;99.90
75824;DHT22;64457;51.976;9.834;2023-04-01T18:12:24;11.90;99.90
75824;DHT22;64457;51.976;9.834;2023-04-01T18:15:18;12.00;99.90
75824;DHT22;64457;51.976;9.834;2023-04-01T18:18:01;12.10;99.90